sensor_id;sensor_type;location;lat;lon;timestamp;P1;durP1;ratioP1;P2;durP2;ratioP2
60908;SDS011;46780;48.128;-1.704;2022-12-10T00:01:37;34.70;;;19.58;;
60908;SDS011;46780;48.128;-1.704;2022-12-10T00:04:03;32.67;;;18.13;;
60908;SDS011;46780;48.128;-1.704;2022-12-10T00:06:30;33.10;;;19.35;;
60908;SDS011;46780;48.128;-1.704;2022-12-10T00:08:58;35.35;;;19.23;;
60908;SDS011;46780;48.128;-1.704;2022-12-10T00:11:25;35.45;;;19.55;;
60908;SDS011;46780;48.128;-1.704;2022-12-10T00:13:52;30.48;;;17.73;;
60908;SDS011;46780;48.128;-1.704;2022-12-10T00:16:21;32.75;;;19.25;;
60908;SDS011;46780;48.128;-1.704;2022-12-10T00:18:50;39.03;;;23.35;;
60908;SDS011;46780;48.128;-1.704;2022-12-10T00:21:18;41.95;;;24.50;;
60908;SDS011;46780;48.128;-1.704;2022-12-10T00:23:45;40.05;;;23.60;;
60908;SDS011;46780;48.128;-1.704;2022-12-10T00:26:13;44.47;;;24.55;;
60908;SDS011;46780;48.128;-1.704;2022-12-10T00:28:42;40.28;;;23.65;;
60908;SDS011;46780;48.128;-1.704;2022-12-10T00:31:09;40.63;;;24.02;;
60908;SDS011;46780;48.128;-1.704;2022-12-10T00:33:39;40.03;;;23.55;;
60908;SDS011;46780;48.128;-1.704;2022-12-10T00:36:06;42.70;;;22.58;;
60908;SDS011;46780;48.128;-1.704;2022-12-10T00:38:36;38.30;;;22.27;;
60908;SDS011;46780;48.128;-1.704;2022-12-10T00:41:03;38.35;;;22.58;;
60908;SDS011;46780;48.128;-1.704;2022-12-10T00:43:30;36.28;;;22.20;;
60908;SDS011;46780;48.128;-1.704;2022-12-10T00:45:57;35.72;;;21.65;;
60908;SDS011;46780;48.128;-1.704;2022-12-10T00:48:24;38.03;;;21.50;;
60908;SDS011;46780;48.128;-1.704;2022-12-10T00:50:56;37.78;;;21.88;;
60908;SDS011;46780;48.128;-1.704;2022-12-10T00:53:24;40.50;;;22.45;;
60908;SDS011;46780;48.128;-1.704;2022-12-10T00:55:52;36.47;;;22.08;;
60908;SDS011;46780;48.128;-1.704;2022-12-10T00:58:18;40.25;;;22.60;;
60908;SDS011;46780;48.128;-1.704;2022-12-10T01:00:45;37.22;;;22.50;;
60908;SDS011;46780;48.128;-1.704;2022-12-10T01:03:12;39.75;;;22.45;;
60908;SDS011;46780;48.128;-1.704;2022-12-10T01:05:38;38.03;;;22.52;;
60908;SDS011;46780;48.128;-1.704;2022-12-10T01:08:06;38.13;;;22.50;;
60908;SDS011;46780;48.128;-1.704;2022-12-10T01:10:33;42.03;;;22.65;;
60908;SDS011;46780;48.128;-1.704;2022-12-10T01:12:59;41.22;;;23.00;;
60908;SDS011;46780;48.128;-1.704;2022-12-10T01:15:26;36.47;;;20.92;;
60908;SDS011;46780;48.128;-1.704;2022-12-10T01:17:52;34.47;;;20.48;;
60908;SDS011;46780;48.128;-1.704;2022-12-10T01:20:19;35.83;;;20.50;;
60908;SDS011;46780;48.128;-1.704;2022-12-10T01:22:45;34.30;;;19.92;;
60908;SDS011;46780;48.128;-1.704;2022-12-10T01:25:13;33.72;;;20.55;;
60908;SDS011;46780;48.128;-1.704;2022-12-10T01:27:39;36.78;;;20.48;;
60908;SDS011;46780;48.128;-1.704;2022-12-10T01:30:06;33.38;;;20.35;;
60908;SDS011;46780;48.128;-1.704;2022-12-10T01:32:34;33.63;;;19.83;;
60908;SDS011;46780;48.128;-1.704;2022-12-10T01:35:01;33.45;;;20.13;;
60908;SDS011;46780;48.128;-1.704;2022-12-10T01:37:27;32.75;;;19.70;;
60908;SDS011;46780;48.128;-1.704;2022-12-10T01:39:54;32.70;;;19.55;;
60908;SDS011;46780;48.128;-1.704;2022-12-10T01:42:21;31.45;;;19.23;;
60908;SDS011;46780;48.128;-1.704;2022-12-10T01:44:59;29.70;;;18.65;;
60908;SDS011;46780;48.128;-1.704;2022-12-10T01:47:28;32.65;;;18.88;;
60908;SDS011;46780;48.128;-1.704;2022-12-10T01:49:55;33.22;;;18.98;;
60908;SDS011;46780;48.128;-1.704;2022-12-10T01:52:23;33.10;;;19.20;;
60908;SDS011;46780;48.128;-1.704;2022-12-10T01:54:50;29.40;;;18.40;;
60908;SDS011;46780;48.128;-1.704;2022-12-10T01:57:17;30.58;;;18.25;;
60908;SDS011;46780;48.128;-1.704;2022-12-10T01:59:48;29.85;;;18.13;;
60908;SDS011;46780;48.128;-1.704;2022-12-10T02:02:18;32.85;;;17.85;;
60908;SDS011;46780;48.128;-1.704;2022-12-10T02:04:54;34.00;;;18.70;;
60908;SDS011;46780;48.128;-1.704;2022-12-10T02:07:32;35.17;;;18.95;;
60908;SDS011;46780;48.128;-1.704;2022-12-10T02:10:07;33.03;;;19.02;;
60908;SDS011;46780;48.128;-1.704;2022-12-10T02:12:45;31.58;;;18.27;;
60908;SDS011;46780;48.128;-1.704;2022-12-10T02:15:17;31.75;;;20.25;;
60908;SDS011;46780;48.128;-1.704;2022-12-10T02:17:48;33.13;;;18.40;;
60908;SDS011;46780;48.128;-1.704;2022-12-10T02:20:18;32.40;;;18.88;;
60908;SDS011;46780;48.128;-1.704;2022-12-10T02:22:49;35.83;;;20.52;;
60908;SDS011;46780;48.128;-1.704;2022-12-10T02:25:21;35.55;;;21.30;;
60908;SDS011;46780;48.128;-1.704;2022-12-10T02:27:53;34.97;;;21.08;;
60908;SDS011;46780;48.128;-1.704;2022-12-10T02:30:27;37.95;;;22.05;;
60908;SDS011;46780;48.128;-1.704;2022-12-10T02:32:55;33.40;;;21.08;;
60908;SDS011;46780;48.128;-1.704;2022-12-10T02:35:25;37.95;;;21.92;;
60908;SDS011;46780;48.128;-1.704;2022-12-10T02:37:55;41.17;;;24.33;;
60908;SDS011;46780;48.128;-1.704;2022-12-10T02:40:25;39.85;;;22.65;;
60908;SDS011;46780;48.128;-1.704;2022-12-10T02:42:56;39.55;;;22.88;;
60908;SDS011;46780;48.128;-1.704;2022-12-10T02:45:23;36.42;;;23.00;;
60908;SDS011;46780;48.128;-1.704;2022-12-10T02:47:55;36.97;;;22.25;;
60908;SDS011;46780;48.128;-1.704;2022-12-10T02:50:24;37.40;;;22.40;;
60908;SDS011;46780;48.128;-1.704;2022-12-10T02:52:51;37.05;;;21.45;;
60908;SDS011;46780;48.128;-1.704;2022-12-10T02:55:17;40.45;;;22.27;;
60908;SDS011;46780;48.128;-1.704;2022-12-10T02:57:46;35.85;;;21.80;;
60908;SDS011;46780;48.128;-1.704;2022-12-10T03:00:22;38.35;;;22.58;;
60908;SDS011;46780;48.128;-1.704;2022-12-10T03:02:59;43.83;;;24.67;;
60908;SDS011;46780;48.128;-1.704;2022-12-10T03:05:40;41.80;;;24.23;;
60908;SDS011;46780;48.128;-1.704;2022-12-10T03:08:12;38.85;;;22.98;;
60908;SDS011;46780;48.128;-1.704;2022-12-10T03:10:44;40.83;;;23.58;;
60908;SDS011;46780;48.128;-1.704;2022-12-10T03:13:17;38.83;;;23.48;;
60908;SDS011;46780;48.128;-1.704;2022-12-10T03:15:49;40.03;;;22.50;;
60908;SDS011;46780;48.128;-1.704;2022-12-10T03:18:20;36.38;;;21.80;;
60908;SDS011;46780;48.128;-1.704;2022-12-10T03:20:51;36.10;;;21.33;;
60908;SDS011;46780;48.128;-1.704;2022-12-10T03:23:20;40.15;;;21.42;;
60908;SDS011;46780;48.128;-1.704;2022-12-10T03:25:48;39.78;;;20.73;;
60908;SDS011;46780;48.128;-1.704;2022-12-10T03:28:15;37.35;;;21.30;;
60908;SDS011;46780;48.128;-1.704;2022-12-10T03:30:44;38.00;;;22.13;;
60908;SDS011;46780;48.128;-1.704;2022-12-10T03:33:12;39.33;;;21.33;;
60908;SDS011;46780;48.128;-1.704;2022-12-10T03:35:40;36.45;;;20.33;;
60908;SDS011;46780;48.128;-1.704;2022-12-10T03:38:08;38.80;;;21.33;;
60908;SDS011;46780;48.128;-1.704;2022-12-10T03:40:35;37.40;;;21.15;;
60908;SDS011;46780;48.128;-1.704;2022-12-10T03:43:02;35.55;;;20.65;;
60908;SDS011;46780;48.128;-1.704;2022-12-10T03:45:28;35.08;;;20.45;;
60908;SDS011;46780;48.128;-1.704;2022-12-10T03:47:54;36.60;;;19.90;;
60908;SDS011;46780;48.128;-1.704;2022-12-10T03:50:21;38.40;;;20.80;;
60908;SDS011;46780;48.128;-1.704;2022-12-10T03:52:49;34.90;;;20.67;;
60908;SDS011;46780;48.128;-1.704;2022-12-10T03:55:15;37.80;;;21.73;;
60908;SDS011;46780;48.128;-1.704;2022-12-10T03:57:42;34.67;;;20.35;;
60908;SDS011;46780;48.128;-1.704;2022-12-10T04:00:09;36.47;;;20.30;;
60908;SDS011;46780;48.128;-1.704;2022-12-10T04:02:36;37.33;;;20.48;;
60908;SDS011;46780;48.128;-1.704;2022-12-10T04:05:03;39.22;;;20.63;;
60908;SDS011;46780;48.128;-1.704;2022-12-10T04:07:30;34.80;;;19.65;;
60908;SDS011;46780;48.128;-1.704;2022-12-10T04:09:58;34.22;;;19.85;;
60908;SDS011;46780;48.128;-1.704;2022-12-10T04:12:24;33.33;;;19.10;;
60908;SDS011;46780;48.128;-1.704;2022-12-10T04:14:51;35.60;;;20.27;;
60908;SDS011;46780;48.128;-1.704;2022-12-10T04:17:17;35.50;;;19.92;;
60908;SDS011;46780;48.128;-1.704;2022-12-10T04:19:44;33.90;;;20.00;;
60908;SDS011;46780;48.128;-1.704;2022-12-10T04:22:10;36.70;;;20.05;;
60908;SDS011;46780;48.128;-1.704;2022-12-10T04:24:37;38.83;;;20.02;;
60908;SDS011;46780;48.128;-1.704;2022-12-10T04:27:06;34.08;;;20.05;;
60908;SDS011;46780;48.128;-1.704;2022-12-10T04:29:35;35.33;;;20.30;;
60908;SDS011;46780;48.128;-1.704;2022-12-10T04:32:01;39.25;;;21.67;;
60908;SDS011;46780;48.128;-1.704;2022-12-10T04:34:28;36.00;;;20.20;;
60908;SDS011;46780;48.128;-1.704;2022-12-10T04:36:55;35.83;;;20.90;;
60908;SDS011;46780;48.128;-1.704;2022-12-10T04:39:23;37.22;;;21.17;;
60908;SDS011;46780;48.128;-1.704;2022-12-10T04:41:50;38.97;;;21.77;;
60908;SDS011;46780;48.128;-1.704;2022-12-10T04:44:18;37.78;;;21.27;;
60908;SDS011;46780;48.128;-1.704;2022-12-10T04:46:45;42.20;;;22.02;;
60908;SDS011;46780;48.128;-1.704;2022-12-10T04:49:12;36.97;;;21.55;;
60908;SDS011;46780;48.128;-1.704;2022-12-10T04:51:39;35.88;;;21.30;;
60908;SDS011;46780;48.128;-1.704;2022-12-10T04:54:06;39.45;;;22.83;;
60908;SDS011;46780;48.128;-1.704;2022-12-10T04:56:33;38.92;;;22.50;;
60908;SDS011;46780;48.128;-1.704;2022-12-10T04:59:00;39.13;;;21.83;;
60908;SDS011;46780;48.128;-1.704;2022-12-10T05:01:29;39.17;;;22.55;;
60908;SDS011;46780;48.128;-1.704;2022-12-10T05:03:57;36.90;;;21.35;;
60908;SDS011;46780;48.128;-1.704;2022-12-10T05:06:25;37.22;;;21.48;;
60908;SDS011;46780;48.128;-1.704;2022-12-10T05:08:52;36.38;;;19.67;;
60908;SDS011;46780;48.128;-1.704;2022-12-10T05:11:19;32.17;;;20.25;;
60908;SDS011;46780;48.128;-1.704;2022-12-10T05:13:47;35.67;;;20.08;;
60908;SDS011;46780;48.128;-1.704;2022-12-10T05:16:15;33.33;;;19.17;;
60908;SDS011;46780;48.128;-1.704;2022-12-10T05:18:44;32.55;;;18.65;;
60908;SDS011;46780;48.128;-1.704;2022-12-10T05:21:11;34.20;;;18.90;;
60908;SDS011;46780;48.128;-1.704;2022-12-10T05:23:40;34.85;;;18.95;;
60908;SDS011;46780;48.128;-1.704;2022-12-10T05:26:09;30.63;;;19.02;;
60908;SDS011;46780;48.128;-1.704;2022-12-10T05:28:39;31.52;;;18.73;;
60908;SDS011;46780;48.128;-1.704;2022-12-10T05:31:11;33.17;;;18.85;;
60908;SDS011;46780;48.128;-1.704;2022-12-10T05:33:38;33.05;;;18.25;;
60908;SDS011;46780;48.128;-1.704;2022-12-10T05:36:06;37.15;;;19.38;;
60908;SDS011;46780;48.128;-1.704;2022-12-10T05:38:33;30.90;;;18.35;;
60908;SDS011;46780;48.128;-1.704;2022-12-10T05:41:00;34.75;;;19.35;;
60908;SDS011;46780;48.128;-1.704;2022-12-10T05:43:28;34.30;;;19.20;;
60908;SDS011;46780;48.128;-1.704;2022-12-10T05:45:58;34.58;;;19.20;;
60908;SDS011;46780;48.128;-1.704;2022-12-10T05:48:25;33.10;;;19.27;;
60908;SDS011;46780;48.128;-1.704;2022-12-10T05:50:51;36.38;;;19.65;;
60908;SDS011;46780;48.128;-1.704;2022-12-10T05:53:19;40.08;;;21.98;;
60908;SDS011;46780;48.128;-1.704;2022-12-10T05:55:46;38.20;;;22.00;;
60908;SDS011;46780;48.128;-1.704;2022-12-10T05:58:12;40.20;;;20.92;;
60908;SDS011;46780;48.128;-1.704;2022-12-10T06:00:39;38.60;;;21.02;;
60908;SDS011;46780;48.128;-1.704;2022-12-10T06:03:06;38.58;;;20.67;;
60908;SDS011;46780;48.128;-1.704;2022-12-10T06:05:35;38.30;;;20.60;;
60908;SDS011;46780;48.128;-1.704;2022-12-10T06:08:02;34.65;;;20.48;;
60908;SDS011;46780;48.128;-1.704;2022-12-10T06:10:30;37.22;;;19.92;;
60908;SDS011;46780;48.128;-1.704;2022-12-10T06:12:57;34.83;;;19.55;;
60908;SDS011;46780;48.128;-1.704;2022-12-10T06:15:23;32.47;;;16.60;;
60908;SDS011;46780;48.128;-1.704;2022-12-10T06:17:50;31.30;;;17.30;;
60908;SDS011;46780;48.128;-1.704;2022-12-10T06:20:16;30.48;;;17.60;;
60908;SDS011;46780;48.128;-1.704;2022-12-10T06:22:43;33.15;;;18.48;;
60908;SDS011;46780;48.128;-1.704;2022-12-10T06:25:09;37.78;;;18.98;;
60908;SDS011;46780;48.128;-1.704;2022-12-10T06:27:37;31.63;;;19.02;;
60908;SDS011;46780;48.128;-1.704;2022-12-10T06:30:04;35.60;;;19.65;;
60908;SDS011;46780;48.128;-1.704;2022-12-10T06:32:31;30.50;;;18.67;;
60908;SDS011;46780;48.128;-1.704;2022-12-10T06:34:58;36.53;;;19.63;;
60908;SDS011;46780;48.128;-1.704;2022-12-10T06:37:24;36.25;;;19.90;;
60908;SDS011;46780;48.128;-1.704;2022-12-10T06:39:51;35.20;;;19.80;;
60908;SDS011;46780;48.128;-1.704;2022-12-10T06:42:17;36.78;;;20.15;;
60908;SDS011;46780;48.128;-1.704;2022-12-10T06:44:45;34.08;;;19.80;;
60908;SDS011;46780;48.128;-1.704;2022-12-10T06:47:12;35.90;;;20.05;;
60908;SDS011;46780;48.128;-1.704;2022-12-10T06:49:38;36.00;;;20.40;;
60908;SDS011;46780;48.128;-1.704;2022-12-10T06:52:05;33.42;;;19.63;;
60908;SDS011;46780;48.128;-1.704;2022-12-10T06:54:32;37.55;;;19.90;;
60908;SDS011;46780;48.128;-1.704;2022-12-10T06:56:58;36.30;;;20.05;;
60908;SDS011;46780;48.128;-1.704;2022-12-10T06:59:25;44.10;;;22.08;;
60908;SDS011;46780;48.128;-1.704;2022-12-10T07:01:53;36.47;;;20.15;;
60908;SDS011;46780;48.128;-1.704;2022-12-10T07:04:19;40.50;;;21.40;;
60908;SDS011;46780;48.128;-1.704;2022-12-10T07:06:46;37.90;;;20.77;;
60908;SDS011;46780;48.128;-1.704;2022-12-10T07:09:12;38.30;;;21.25;;
60908;SDS011;46780;48.128;-1.704;2022-12-10T07:11:39;40.92;;;22.02;;
60908;SDS011;46780;48.128;-1.704;2022-12-10T07:14:05;40.10;;;21.63;;
60908;SDS011;46780;48.128;-1.704;2022-12-10T07:16:32;43.72;;;22.20;;
60908;SDS011;46780;48.128;-1.704;2022-12-10T07:19:01;45.15;;;23.90;;
60908;SDS011;46780;48.128;-1.704;2022-12-10T07:21:28;44.03;;;22.13;;
60908;SDS011;46780;48.128;-1.704;2022-12-10T07:23:57;40.33;;;22.52;;
60908;SDS011;46780;48.128;-1.704;2022-12-10T07:26:27;42.08;;;22.35;;
60908;SDS011;46780;48.128;-1.704;2022-12-10T07:28:55;43.33;;;22.90;;
60908;SDS011;46780;48.128;-1.704;2022-12-10T07:31:21;44.10;;;23.92;;
60908;SDS011;46780;48.128;-1.704;2022-12-10T07:33:48;47.03;;;25.25;;
60908;SDS011;46780;48.128;-1.704;2022-12-10T07:36:16;49.65;;;25.65;;
60908;SDS011;46780;48.128;-1.704;2022-12-10T07:38:44;51.95;;;27.00;;
60908;SDS011;46780;48.128;-1.704;2022-12-10T07:41:11;52.50;;;28.25;;
60908;SDS011;46780;48.128;-1.704;2022-12-10T07:43:39;47.45;;;26.65;;
60908;SDS011;46780;48.128;-1.704;2022-12-10T07:46:07;52.17;;;26.92;;
60908;SDS011;46780;48.128;-1.704;2022-12-10T07:48:35;48.05;;;26.25;;
60908;SDS011;46780;48.128;-1.704;2022-12-10T07:51:03;48.22;;;25.42;;
60908;SDS011;46780;48.128;-1.704;2022-12-10T07:53:31;50.80;;;25.58;;
60908;SDS011;46780;48.128;-1.704;2022-12-10T07:55:58;48.17;;;25.23;;
60908;SDS011;46780;48.128;-1.704;2022-12-10T07:58:25;46.50;;;26.35;;
60908;SDS011;46780;48.128;-1.704;2022-12-10T08:00:52;48.10;;;24.77;;
60908;SDS011;46780;48.128;-1.704;2022-12-10T08:03:18;48.17;;;26.15;;
60908;SDS011;46780;48.128;-1.704;2022-12-10T08:05:45;42.00;;;23.77;;
60908;SDS011;46780;48.128;-1.704;2022-12-10T08:08:11;42.15;;;22.45;;
60908;SDS011;46780;48.128;-1.704;2022-12-10T08:10:39;36.85;;;21.10;;
60908;SDS011;46780;48.128;-1.704;2022-12-10T08:13:06;42.28;;;22.48;;
60908;SDS011;46780;48.128;-1.704;2022-12-10T08:15:32;40.58;;;21.15;;
60908;SDS011;46780;48.128;-1.704;2022-12-10T08:17:59;36.92;;;20.88;;
60908;SDS011;46780;48.128;-1.704;2022-12-10T08:20:25;39.60;;;22.02;;
60908;SDS011;46780;48.128;-1.704;2022-12-10T08:22:52;35.25;;;21.23;;
60908;SDS011;46780;48.128;-1.704;2022-12-10T08:25:18;35.50;;;21.02;;
60908;SDS011;46780;48.128;-1.704;2022-12-10T08:27:46;39.53;;;21.33;;
60908;SDS011;46780;48.128;-1.704;2022-12-10T08:30:13;35.85;;;20.63;;
60908;SDS011;46780;48.128;-1.704;2022-12-10T08:32:39;36.20;;;21.40;;
60908;SDS011;46780;48.128;-1.704;2022-12-10T08:35:06;32.03;;;20.33;;
60908;SDS011;46780;48.128;-1.704;2022-12-10T08:37:33;40.28;;;22.02;;
60908;SDS011;46780;48.128;-1.704;2022-12-10T08:40:00;34.33;;;19.98;;
60908;SDS011;46780;48.128;-1.704;2022-12-10T08:42:26;33.95;;;19.80;;
60908;SDS011;46780;48.128;-1.704;2022-12-10T08:44:54;37.58;;;21.50;;
60908;SDS011;46780;48.128;-1.704;2022-12-10T08:47:20;34.22;;;20.48;;
60908;SDS011;46780;48.128;-1.704;2022-12-10T08:49:47;34.60;;;20.73;;
60908;SDS011;46780;48.128;-1.704;2022-12-10T08:52:13;35.95;;;20.30;;
60908;SDS011;46780;48.128;-1.704;2022-12-10T08:54:40;32.63;;;19.42;;
60908;SDS011;46780;48.128;-1.704;2022-12-10T08:57:06;32.40;;;18.92;;
60908;SDS011;46780;48.128;-1.704;2022-12-10T08:59:33;32.78;;;19.38;;
60908;SDS011;46780;48.128;-1.704;2022-12-10T09:02:00;32.75;;;18.70;;
60908;SDS011;46780;48.128;-1.704;2022-12-10T09:04:27;28.88;;;17.40;;
60908;SDS011;46780;48.128;-1.704;2022-12-10T09:06:53;31.08;;;18.58;;
60908;SDS011;46780;48.128;-1.704;2022-12-10T09:09:20;30.15;;;18.70;;
60908;SDS011;46780;48.128;-1.704;2022-12-10T09:11:46;32.05;;;18.88;;
60908;SDS011;46780;48.128;-1.704;2022-12-10T09:14:13;30.40;;;18.17;;
60908;SDS011;46780;48.128;-1.704;2022-12-10T09:16:39;33.97;;;18.70;;
60908;SDS011;46780;48.128;-1.704;2022-12-10T09:19:07;32.00;;;19.60;;
60908;SDS011;46780;48.128;-1.704;2022-12-10T09:21:34;33.90;;;20.10;;
60908;SDS011;46780;48.128;-1.704;2022-12-10T09:24:01;32.38;;;19.98;;
60908;SDS011;46780;48.128;-1.704;2022-12-10T09:26:28;31.08;;;20.77;;
60908;SDS011;46780;48.128;-1.704;2022-12-10T09:28:54;32.60;;;20.98;;
60908;SDS011;46780;48.128;-1.704;2022-12-10T09:31:21;34.22;;;22.27;;
60908;SDS011;46780;48.128;-1.704;2022-12-10T09:33:48;38.85;;;23.08;;
60908;SDS011;46780;48.128;-1.704;2022-12-10T09:36:17;37.53;;;22.67;;
60908;SDS011;46780;48.128;-1.704;2022-12-10T09:38:45;36.33;;;22.85;;
60908;SDS011;46780;48.128;-1.704;2022-12-10T09:41:17;39.95;;;24.10;;
60908;SDS011;46780;48.128;-1.704;2022-12-10T09:43:57;40.03;;;22.92;;
60908;SDS011;46780;48.128;-1.704;2022-12-10T09:46:31;36.65;;;22.02;;
60908;SDS011;46780;48.128;-1.704;2022-12-10T09:49:08;37.85;;;20.65;;
60908;SDS011;46780;48.128;-1.704;2022-12-10T09:51:42;36.95;;;21.98;;
60908;SDS011;46780;48.128;-1.704;2022-12-10T09:54:11;34.60;;;20.98;;
60908;SDS011;46780;48.128;-1.704;2022-12-10T09:56:44;38.90;;;22.30;;
60908;SDS011;46780;48.128;-1.704;2022-12-10T09:59:11;38.22;;;20.70;;
60908;SDS011;46780;48.128;-1.704;2022-12-10T10:01:42;32.92;;;19.20;;
60908;SDS011;46780;48.128;-1.704;2022-12-10T10:04:10;32.22;;;19.83;;
60908;SDS011;46780;48.128;-1.704;2022-12-10T10:06:36;29.70;;;19.13;;
60908;SDS011;46780;48.128;-1.704;2022-12-10T10:09:05;28.90;;;18.35;;
60908;SDS011;46780;48.128;-1.704;2022-12-10T10:11:35;31.52;;;18.17;;
60908;SDS011;46780;48.128;-1.704;2022-12-10T10:14:04;30.63;;;18.73;;
60908;SDS011;46780;48.128;-1.704;2022-12-10T10:16:36;31.98;;;18.08;;
60908;SDS011;46780;48.128;-1.704;2022-12-10T10:19:10;29.85;;;18.52;;
60908;SDS011;46780;48.128;-1.704;2022-12-10T10:21:40;30.30;;;18.40;;
60908;SDS011;46780;48.128;-1.704;2022-12-10T10:24:12;31.67;;;18.95;;
60908;SDS011;46780;48.128;-1.704;2022-12-10T10:26:41;27.02;;;17.77;;
60908;SDS011;46780;48.128;-1.704;2022-12-10T10:29:08;30.02;;;17.98;;
60908;SDS011;46780;48.128;-1.704;2022-12-10T10:31:38;26.67;;;16.90;;
60908;SDS011;46780;48.128;-1.704;2022-12-10T10:34:12;26.70;;;16.77;;
60908;SDS011;46780;48.128;-1.704;2022-12-10T10:36:40;26.55;;;17.10;;
60908;SDS011;46780;48.128;-1.704;2022-12-10T10:39:08;32.00;;;17.60;;
60908;SDS011;46780;48.128;-1.704;2022-12-10T10:41:44;26.05;;;16.95;;
60908;SDS011;46780;48.128;-1.704;2022-12-10T10:44:14;27.23;;;17.13;;
60908;SDS011;46780;48.128;-1.704;2022-12-10T10:46:45;27.50;;;17.50;;
60908;SDS011;46780;48.128;-1.704;2022-12-10T10:49:15;24.73;;;16.42;;
60908;SDS011;46780;48.128;-1.704;2022-12-10T10:51:48;27.13;;;18.05;;
60908;SDS011;46780;48.128;-1.704;2022-12-10T10:54:30;26.77;;;18.13;;
60908;SDS011;46780;48.128;-1.704;2022-12-10T10:56:58;30.75;;;19.15;;
60908;SDS011;46780;48.128;-1.704;2022-12-10T11:01:58;28.20;;;18.02;;
60908;SDS011;46780;48.128;-1.704;2022-12-10T11:04:29;28.58;;;17.45;;
60908;SDS011;46780;48.128;-1.704;2022-12-10T11:07:02;25.95;;;17.60;;
60908;SDS011;46780;48.128;-1.704;2022-12-10T11:09:33;25.60;;;16.67;;
60908;SDS011;46780;48.128;-1.704;2022-12-10T11:12:03;26.25;;;16.90;;
60908;SDS011;46780;48.128;-1.704;2022-12-10T11:14:32;26.57;;;17.40;;
60908;SDS011;46780;48.128;-1.704;2022-12-10T11:17:00;29.10;;;17.58;;
60908;SDS011;46780;48.128;-1.704;2022-12-10T11:19:28;23.75;;;14.65;;
60908;SDS011;46780;48.128;-1.704;2022-12-10T11:21:54;22.60;;;14.38;;
60908;SDS011;46780;48.128;-1.704;2022-12-10T11:24:41;23.50;;;14.75;;
60908;SDS011;46780;48.128;-1.704;2022-12-10T11:27:08;21.08;;;13.82;;
60908;SDS011;46780;48.128;-1.704;2022-12-10T11:29:44;27.50;;;15.13;;
60908;SDS011;46780;48.128;-1.704;2022-12-10T11:32:19;23.33;;;15.30;;
60908;SDS011;46780;48.128;-1.704;2022-12-10T11:34:58;23.17;;;15.23;;
60908;SDS011;46780;48.128;-1.704;2022-12-10T11:37:35;25.35;;;15.93;;
60908;SDS011;46780;48.128;-1.704;2022-12-10T11:42:59;24.98;;;15.43;;
60908;SDS011;46780;48.128;-1.704;2022-12-10T11:45:44;21.33;;;14.02;;
60908;SDS011;46780;48.128;-1.704;2022-12-10T11:48:22;24.80;;;14.48;;
60908;SDS011;46780;48.128;-1.704;2022-12-10T11:50:59;18.95;;;11.98;;
60908;SDS011;46780;48.128;-1.704;2022-12-10T11:53:43;18.63;;;11.63;;
60908;SDS011;46780;48.128;-1.704;2022-12-10T11:56:21;21.17;;;13.18;;
60908;SDS011;46780;48.128;-1.704;2022-12-10T11:58:55;20.00;;;13.00;;
60908;SDS011;46780;48.128;-1.704;2022-12-10T12:01:31;19.92;;;12.35;;
60908;SDS011;46780;48.128;-1.704;2022-12-10T12:04:13;18.47;;;11.93;;
60908;SDS011;46780;48.128;-1.704;2022-12-10T12:09:34;17.17;;;10.95;;
60908;SDS011;46780;48.128;-1.704;2022-12-10T12:12:15;20.35;;;12.40;;
60908;SDS011;46780;48.128;-1.704;2022-12-10T12:14:50;24.73;;;14.02;;
60908;SDS011;46780;48.128;-1.704;2022-12-10T12:17:21;21.00;;;13.02;;
60908;SDS011;46780;48.128;-1.704;2022-12-10T12:19:51;22.50;;;14.25;;
60908;SDS011;46780;48.128;-1.704;2022-12-10T12:22:23;22.55;;;14.73;;
60908;SDS011;46780;48.128;-1.704;2022-12-10T12:24:51;26.83;;;16.75;;
60908;SDS011;46780;48.128;-1.704;2022-12-10T12:27:26;23.25;;;14.75;;
60908;SDS011;46780;48.128;-1.704;2022-12-10T12:30:00;21.67;;;14.65;;
60908;SDS011;46780;48.128;-1.704;2022-12-10T12:32:31;26.30;;;17.45;;
60908;SDS011;46780;48.128;-1.704;2022-12-10T12:35:09;27.77;;;15.85;;
60908;SDS011;46780;48.128;-1.704;2022-12-10T12:37:40;22.27;;;14.07;;
60908;SDS011;46780;48.128;-1.704;2022-12-10T12:40:12;21.60;;;13.68;;
60908;SDS011;46780;48.128;-1.704;2022-12-10T12:42:42;19.70;;;12.50;;
60908;SDS011;46780;48.128;-1.704;2022-12-10T12:45:15;19.23;;;12.88;;
60908;SDS011;46780;48.128;-1.704;2022-12-10T12:47:46;18.52;;;12.75;;
60908;SDS011;46780;48.128;-1.704;2022-12-10T12:50:22;18.70;;;12.68;;
60908;SDS011;46780;48.128;-1.704;2022-12-10T12:52:53;18.42;;;12.23;;
60908;SDS011;46780;48.128;-1.704;2022-12-10T12:55:22;21.33;;;13.07;;
60908;SDS011;46780;48.128;-1.704;2022-12-10T12:58:09;21.35;;;14.00;;
60908;SDS011;46780;48.128;-1.704;2022-12-10T13:00:42;22.17;;;13.95;;
60908;SDS011;46780;48.128;-1.704;2022-12-10T13:03:17;18.77;;;12.50;;
60908;SDS011;46780;48.128;-1.704;2022-12-10T13:05:51;19.65;;;11.90;;
60908;SDS011;46780;48.128;-1.704;2022-12-10T13:08:28;19.42;;;12.35;;
60908;SDS011;46780;48.128;-1.704;2022-12-10T13:11:00;17.38;;;12.30;;
60908;SDS011;46780;48.128;-1.704;2022-12-10T13:16:46;14.50;;;9.68;;
60908;SDS011;46780;48.128;-1.704;2022-12-10T13:19:26;14.60;;;9.70;;
60908;SDS011;46780;48.128;-1.704;2022-12-10T13:21:59;15.43;;;8.98;;
60908;SDS011;46780;48.128;-1.704;2022-12-10T13:24:45;13.73;;;8.18;;
60908;SDS011;46780;48.128;-1.704;2022-12-10T13:27:36;11.30;;;6.60;;
60908;SDS011;46780;48.128;-1.704;2022-12-10T13:30:29;14.23;;;9.13;;
60908;SDS011;46780;48.128;-1.704;2022-12-10T13:33:03;13.77;;;9.48;;
60908;SDS011;46780;48.128;-1.704;2022-12-10T13:35:43;16.48;;;9.55;;
60908;SDS011;46780;48.128;-1.704;2022-12-10T13:38:19;13.98;;;7.55;;
60908;SDS011;46780;48.128;-1.704;2022-12-10T13:40:56;14.70;;;8.77;;
60908;SDS011;46780;48.128;-1.704;2022-12-10T13:43:28;13.82;;;7.93;;
60908;SDS011;46780;48.128;-1.704;2022-12-10T13:48:48;12.27;;;7.18;;
60908;SDS011;46780;48.128;-1.704;2022-12-10T13:54:16;12.05;;;5.30;;
60908;SDS011;46780;48.128;-1.704;2022-12-10T13:56:55;9.43;;;5.07;;
60908;SDS011;46780;48.128;-1.704;2022-12-10T13:59:32;9.88;;;4.30;;
60908;SDS011;46780;48.128;-1.704;2022-12-10T14:05:17;8.45;;;4.25;;
60908;SDS011;46780;48.128;-1.704;2022-12-10T14:07:56;10.18;;;5.20;;
60908;SDS011;46780;48.128;-1.704;2022-12-10T14:10:27;11.80;;;5.63;;
60908;SDS011;46780;48.128;-1.704;2022-12-10T14:12:58;11.25;;;5.70;;
60908;SDS011;46780;48.128;-1.704;2022-12-10T14:15:25;13.13;;;6.90;;
60908;SDS011;46780;48.128;-1.704;2022-12-10T14:17:56;14.70;;;7.85;;
60908;SDS011;46780;48.128;-1.704;2022-12-10T14:20:27;12.20;;;6.57;;
60908;SDS011;46780;48.128;-1.704;2022-12-10T14:22:56;12.40;;;6.57;;
60908;SDS011;46780;48.128;-1.704;2022-12-10T14:25:23;13.05;;;7.35;;
60908;SDS011;46780;48.128;-1.704;2022-12-10T14:27:49;15.40;;;8.07;;
60908;SDS011;46780;48.128;-1.704;2022-12-10T14:30:18;16.70;;;9.25;;
60908;SDS011;46780;48.128;-1.704;2022-12-10T14:32:46;15.90;;;9.27;;
60908;SDS011;46780;48.128;-1.704;2022-12-10T14:35:16;15.13;;;8.40;;
60908;SDS011;46780;48.128;-1.704;2022-12-10T14:37:46;13.80;;;7.00;;
60908;SDS011;46780;48.128;-1.704;2022-12-10T14:40:18;11.32;;;5.55;;
60908;SDS011;46780;48.128;-1.704;2022-12-10T14:42:48;12.18;;;6.28;;
60908;SDS011;46780;48.128;-1.704;2022-12-10T14:45:15;14.35;;;7.10;;